sensor_id;sensor_type;location;lat;lon;timestamp;P1;durP1;ratioP1;P2;durP2;ratioP2
64094;SDS011;50353;51.420;5.682;2023-08-30T00:02:14;4.50;;;2.97;;
64094;SDS011;50353;51.420;5.682;2023-08-30T00:04:39;6.73;;;3.23;;
64094;SDS011;50353;51.420;5.682;2023-08-30T00:07:06;4.18;;;2.72;;
64094;SDS011;50353;51.420;5.682;2023-08-30T00:09:32;4.37;;;3.00;;
64094;SDS011;50353;51.420;5.682;2023-08-30T00:11:57;5.67;;;2.73;;
64094;SDS011;50353;51.420;5.682;2023-08-30T00:14:22;4.63;;;3.10;;
64094;SDS011;50353;51.420;5.682;2023-08-30T00:16:47;4.78;;;3.47;;
64094;SDS011;50353;51.420;5.682;2023-08-30T00:19:13;5.80;;;3.30;;
64094;SDS011;50353;51.420;5.682;2023-08-30T00:21:38;5.28;;;2.83;;
64094;SDS011;50353;51.420;5.682;2023-08-30T00:24:03;4.30;;;2.93;;
64094;SDS011;50353;51.420;5.682;2023-08-30T00:26:29;3.70;;;2.58;;
64094;SDS011;50353;51.420;5.682;2023-08-30T00:28:54;4.17;;;3.20;;
64094;SDS011;50353;51.420;5.682;2023-08-30T00:31:20;5.50;;;2.80;;
64094;SDS011;50353;51.420;5.682;2023-08-30T00:33:45;4.68;;;2.70;;
64094;SDS011;50353;51.420;5.682;2023-08-30T00:36:10;6.00;;;2.50;;
64094;SDS011;50353;51.420;5.682;2023-08-30T00:38:36;5.77;;;3.03;;
64094;SDS011;50353;51.420;5.682;2023-08-30T00:41:01;6.40;;;4.07;;
64094;SDS011;50353;51.420;5.682;2023-08-30T00:43:26;5.67;;;3.73;;
64094;SDS011;50353;51.420;5.682;2023-08-30T00:45:52;4.60;;;3.20;;
64094;SDS011;50353;51.420;5.682;2023-08-30T00:48:17;5.70;;;3.40;;
64094;SDS011;50353;51.420;5.682;2023-08-30T00:50:45;5.15;;;3.53;;
64094;SDS011;50353;51.420;5.682;2023-08-30T00:53:11;4.30;;;3.20;;
64094;SDS011;50353;51.420;5.682;2023-08-30T00:55:37;5.40;;;2.92;;
64094;SDS011;50353;51.420;5.682;2023-08-30T00:58:03;7.72;;;3.00;;
64094;SDS011;50353;51.420;5.682;2023-08-30T01:00:29;5.45;;;3.30;;
64094;SDS011;50353;51.420;5.682;2023-08-30T01:02:56;6.03;;;3.30;;
64094;SDS011;50353;51.420;5.682;2023-08-30T01:05:22;4.80;;;3.15;;
64094;SDS011;50353;51.420;5.682;2023-08-30T01:07:48;5.60;;;3.63;;
64094;SDS011;50353;51.420;5.682;2023-08-30T01:10:14;7.07;;;3.97;;
64094;SDS011;50353;51.420;5.682;2023-08-30T01:12:40;7.75;;;3.92;;
64094;SDS011;50353;51.420;5.682;2023-08-30T01:15:12;5.68;;;3.78;;
64094;SDS011;50353;51.420;5.682;2023-08-30T01:17:43;6.90;;;4.65;;
64094;SDS011;50353;51.420;5.682;2023-08-30T01:20:09;7.10;;;3.60;;
64094;SDS011;50353;51.420;5.682;2023-08-30T01:28:13;5.47;;;3.70;;
64094;SDS011;50353;51.420;5.682;2023-08-30T01:30:41;6.03;;;3.75;;
64094;SDS011;50353;51.420;5.682;2023-08-30T01:33:08;6.35;;;3.97;;
64094;SDS011;50353;51.420;5.682;2023-08-30T01:35:35;5.63;;;4.18;;
64094;SDS011;50353;51.420;5.682;2023-08-30T01:38:03;7.00;;;3.95;;
64094;SDS011;50353;51.420;5.682;2023-08-30T01:40:30;6.95;;;3.72;;
64094;SDS011;50353;51.420;5.682;2023-08-30T01:42:58;6.13;;;3.92;;
64094;SDS011;50353;51.420;5.682;2023-08-30T01:45:25;5.32;;;3.83;;
64094;SDS011;50353;51.420;5.682;2023-08-30T01:47:52;5.90;;;4.30;;
64094;SDS011;50353;51.420;5.682;2023-08-30T01:50:19;6.97;;;4.03;;
64094;SDS011;50353;51.420;5.682;2023-08-30T01:52:45;7.13;;;3.78;;
64094;SDS011;50353;51.420;5.682;2023-08-30T01:55:11;6.68;;;4.65;;
64094;SDS011;50353;51.420;5.682;2023-08-30T01:57:38;6.40;;;4.10;;
64094;SDS011;50353;51.420;5.682;2023-08-30T02:00:04;7.20;;;3.97;;
64094;SDS011;50353;51.420;5.682;2023-08-30T02:02:30;6.55;;;3.75;;
64094;SDS011;50353;51.420;5.682;2023-08-30T02:04:56;5.65;;;3.88;;
64094;SDS011;50353;51.420;5.682;2023-08-30T02:07:28;5.43;;;3.55;;
64094;SDS011;50353;51.420;5.682;2023-08-30T02:10:02;5.68;;;4.18;;
64094;SDS011;50353;51.420;5.682;2023-08-30T02:12:34;4.78;;;3.78;;
64094;SDS011;50353;51.420;5.682;2023-08-30T02:15:22;4.93;;;3.60;;
64094;SDS011;50353;51.420;5.682;2023-08-30T02:17:50;5.60;;;3.78;;
64094;SDS011;50353;51.420;5.682;2023-08-30T02:20:16;6.13;;;4.07;;
64094;SDS011;50353;51.420;5.682;2023-08-30T02:22:41;6.65;;;3.53;;
64094;SDS011;50353;51.420;5.682;2023-08-30T02:25:07;6.07;;;3.30;;
64094;SDS011;50353;51.420;5.682;2023-08-30T02:27:33;4.50;;;3.22;;
64094;SDS011;50353;51.420;5.682;2023-08-30T02:29:59;4.78;;;3.45;;
64094;SDS011;50353;51.420;5.682;2023-08-30T02:32:25;5.07;;;3.75;;
64094;SDS011;50353;51.420;5.682;2023-08-30T02:34:50;5.77;;;3.83;;
64094;SDS011;50353;51.420;5.682;2023-08-30T02:39:42;9.20;;;4.10;;
64094;SDS011;50353;51.420;5.682;2023-08-30T02:42:08;6.68;;;4.18;;
64094;SDS011;50353;51.420;5.682;2023-08-30T02:44:33;7.00;;;4.55;;
64094;SDS011;50353;51.420;5.682;2023-08-30T02:46:58;6.60;;;4.00;;
64094;SDS011;50353;51.420;5.682;2023-08-30T02:49:24;8.02;;;4.03;;
64094;SDS011;50353;51.420;5.682;2023-08-30T02:51:49;7.07;;;4.45;;
64094;SDS011;50353;51.420;5.682;2023-08-30T02:54:14;6.65;;;4.07;;
64094;SDS011;50353;51.420;5.682;2023-08-30T02:56:40;7.00;;;3.60;;
64094;SDS011;50353;51.420;5.682;2023-08-30T02:59:07;6.68;;;4.07;;
64094;SDS011;50353;51.420;5.682;2023-08-30T03:01:32;6.95;;;4.03;;
64094;SDS011;50353;51.420;5.682;2023-08-30T03:03:58;6.20;;;4.33;;
64094;SDS011;50353;51.420;5.682;2023-08-30T03:06:23;6.57;;;3.90;;
64094;SDS011;50353;51.420;5.682;2023-08-30T03:08:48;9.93;;;3.93;;
64094;SDS011;50353;51.420;5.682;2023-08-30T03:11:13;9.27;;;4.80;;
64094;SDS011;50353;51.420;5.682;2023-08-30T03:13:39;6.10;;;4.60;;
64094;SDS011;50353;51.420;5.682;2023-08-30T03:16:14;6.47;;;4.38;;
64094;SDS011;50353;51.420;5.682;2023-08-30T03:18:40;8.00;;;5.00;;
64094;SDS011;50353;51.420;5.682;2023-08-30T03:21:07;8.25;;;5.32;;
64094;SDS011;50353;51.420;5.682;2023-08-30T03:23:33;7.82;;;5.13;;
64094;SDS011;50353;51.420;5.682;2023-08-30T03:25:59;8.32;;;5.45;;
64094;SDS011;50353;51.420;5.682;2023-08-30T03:28:25;9.85;;;5.40;;
64094;SDS011;50353;51.420;5.682;2023-08-30T03:30:50;9.30;;;5.35;;
64094;SDS011;50353;51.420;5.682;2023-08-30T03:33:16;8.60;;;5.57;;
64094;SDS011;50353;51.420;5.682;2023-08-30T03:35:41;7.63;;;4.93;;
64094;SDS011;50353;51.420;5.682;2023-08-30T03:38:06;7.80;;;5.67;;
64094;SDS011;50353;51.420;5.682;2023-08-30T03:40:32;8.18;;;5.28;;
64094;SDS011;50353;51.420;5.682;2023-08-30T03:42:57;9.98;;;5.47;;
64094;SDS011;50353;51.420;5.682;2023-08-30T03:45:22;8.43;;;5.45;;
64094;SDS011;50353;51.420;5.682;2023-08-30T03:47:48;9.23;;;5.67;;
64094;SDS011;50353;51.420;5.682;2023-08-30T03:50:13;10.43;;;5.77;;
64094;SDS011;50353;51.420;5.682;2023-08-30T03:52:38;10.77;;;6.07;;
64094;SDS011;50353;51.420;5.682;2023-08-30T03:55:04;10.57;;;5.70;;
64094;SDS011;50353;51.420;5.682;2023-08-30T03:57:29;7.68;;;5.55;;
64094;SDS011;50353;51.420;5.682;2023-08-30T03:59:54;9.73;;;5.82;;
64094;SDS011;50353;51.420;5.682;2023-08-30T04:02:20;10.73;;;6.93;;
64094;SDS011;50353;51.420;5.682;2023-08-30T04:04:46;7.85;;;5.80;;
64094;SDS011;50353;51.420;5.682;2023-08-30T04:07:13;10.52;;;6.63;;
64094;SDS011;50353;51.420;5.682;2023-08-30T04:09:38;9.95;;;6.70;;
64094;SDS011;50353;51.420;5.682;2023-08-30T04:12:03;11.33;;;7.37;;
64094;SDS011;50353;51.420;5.682;2023-08-30T04:14:30;11.50;;;6.82;;
64094;SDS011;50353;51.420;5.682;2023-08-30T04:16:55;9.85;;;6.40;;
64094;SDS011;50353;51.420;5.682;2023-08-30T04:19:20;9.68;;;6.78;;
64094;SDS011;50353;51.420;5.682;2023-08-30T04:21:46;7.38;;;5.80;;
64094;SDS011;50353;51.420;5.682;2023-08-30T04:24:11;8.93;;;6.50;;
64094;SDS011;50353;51.420;5.682;2023-08-30T04:26:36;10.13;;;6.68;;
64094;SDS011;50353;51.420;5.682;2023-08-30T04:29:02;9.48;;;5.90;;
64094;SDS011;50353;51.420;5.682;2023-08-30T04:31:28;11.73;;;7.57;;
64094;SDS011;50353;51.420;5.682;2023-08-30T04:33:54;9.35;;;6.38;;
64094;SDS011;50353;51.420;5.682;2023-08-30T04:36:20;8.98;;;6.22;;
64094;SDS011;50353;51.420;5.682;2023-08-30T04:38:45;9.85;;;6.30;;
64094;SDS011;50353;51.420;5.682;2023-08-30T04:41:11;11.93;;;6.45;;
64094;SDS011;50353;51.420;5.682;2023-08-30T04:43:36;9.35;;;6.30;;
64094;SDS011;50353;51.420;5.682;2023-08-30T04:46:02;9.90;;;6.68;;
64094;SDS011;50353;51.420;5.682;2023-08-30T04:48:27;11.75;;;7.50;;
64094;SDS011;50353;51.420;5.682;2023-08-30T04:51:11;10.23;;;7.50;;
64094;SDS011;50353;51.420;5.682;2023-08-30T04:53:36;10.90;;;6.82;;
64094;SDS011;50353;51.420;5.682;2023-08-30T04:56:09;10.43;;;6.68;;
64094;SDS011;50353;51.420;5.682;2023-08-30T04:58:35;9.88;;;6.47;;
64094;SDS011;50353;51.420;5.682;2023-08-30T05:01:00;7.47;;;6.03;;
64094;SDS011;50353;51.420;5.682;2023-08-30T05:03:26;10.40;;;6.47;;
64094;SDS011;50353;51.420;5.682;2023-08-30T05:05:52;10.23;;;7.43;;
64094;SDS011;50353;51.420;5.682;2023-08-30T05:08:17;9.53;;;6.47;;
64094;SDS011;50353;51.420;5.682;2023-08-30T05:10:42;10.55;;;6.75;;
64094;SDS011;50353;51.420;5.682;2023-08-30T05:13:08;12.98;;;8.00;;
64094;SDS011;50353;51.420;5.682;2023-08-30T05:15:33;17.73;;;6.65;;
64094;SDS011;50353;51.420;5.682;2023-08-30T05:17:58;10.27;;;6.20;;
64094;SDS011;50353;51.420;5.682;2023-08-30T05:20:24;9.93;;;6.73;;
64094;SDS011;50353;51.420;5.682;2023-08-30T05:22:49;11.20;;;7.73;;
64094;SDS011;50353;51.420;5.682;2023-08-30T05:25:14;10.20;;;6.35;;
64094;SDS011;50353;51.420;5.682;2023-08-30T05:27:40;9.50;;;6.50;;
64094;SDS011;50353;51.420;5.682;2023-08-30T05:30:05;8.03;;;5.97;;
64094;SDS011;50353;51.420;5.682;2023-08-30T05:32:31;10.02;;;7.47;;
64094;SDS011;50353;51.420;5.682;2023-08-30T05:34:57;12.23;;;7.47;;
64094;SDS011;50353;51.420;5.682;2023-08-30T05:37:23;11.98;;;7.50;;
64094;SDS011;50353;51.420;5.682;2023-08-30T05:39:49;12.27;;;7.07;;
64094;SDS011;50353;51.420;5.682;2023-08-30T05:42:14;11.45;;;6.95;;
64094;SDS011;50353;51.420;5.682;2023-08-30T05:44:39;12.73;;;7.47;;
64094;SDS011;50353;51.420;5.682;2023-08-30T05:47:05;10.97;;;7.37;;
64094;SDS011;50353;51.420;5.682;2023-08-30T05:49:30;11.13;;;6.87;;
64094;SDS011;50353;51.420;5.682;2023-08-30T05:51:55;12.23;;;7.90;;
64094;SDS011;50353;51.420;5.682;2023-08-30T05:54:20;11.38;;;7.88;;
64094;SDS011;50353;51.420;5.682;2023-08-30T05:56:46;12.30;;;7.77;;
64094;SDS011;50353;51.420;5.682;2023-08-30T05:59:11;12.30;;;8.30;;
64094;SDS011;50353;51.420;5.682;2023-08-30T06:01:36;9.75;;;7.82;;
64094;SDS011;50353;51.420;5.682;2023-08-30T06:04:02;12.43;;;8.23;;
64094;SDS011;50353;51.420;5.682;2023-08-30T06:06:29;12.70;;;8.48;;
64094;SDS011;50353;51.420;5.682;2023-08-30T06:08:54;12.27;;;8.10;;
64094;SDS011;50353;51.420;5.682;2023-08-30T06:11:19;13.07;;;8.17;;
64094;SDS011;50353;51.420;5.682;2023-08-30T06:13:45;11.07;;;8.13;;
64094;SDS011;50353;51.420;5.682;2023-08-30T06:16:10;11.17;;;7.27;;
64094;SDS011;50353;51.420;5.682;2023-08-30T06:18:35;14.13;;;8.63;;
64094;SDS011;50353;51.420;5.682;2023-08-30T06:21:02;15.25;;;9.32;;
64094;SDS011;50353;51.420;5.682;2023-08-30T06:23:29;13.88;;;8.00;;
64094;SDS011;50353;51.420;5.682;2023-08-30T06:25:57;12.77;;;8.75;;
64094;SDS011;50353;51.420;5.682;2023-08-30T06:28:23;12.15;;;8.07;;
64094;SDS011;50353;51.420;5.682;2023-08-30T06:30:48;13.95;;;8.63;;
64094;SDS011;50353;51.420;5.682;2023-08-30T06:33:14;10.43;;;6.70;;
64094;SDS011;50353;51.420;5.682;2023-08-30T06:35:39;10.43;;;7.83;;
64094;SDS011;50353;51.420;5.682;2023-08-30T06:38:04;16.53;;;8.87;;
64094;SDS011;50353;51.420;5.682;2023-08-30T06:40:30;12.25;;;8.15;;
64094;SDS011;50353;51.420;5.682;2023-08-30T06:42:55;13.18;;;9.02;;
64094;SDS011;50353;51.420;5.682;2023-08-30T06:45:22;13.25;;;7.90;;
64094;SDS011;50353;51.420;5.682;2023-08-30T06:47:48;10.90;;;7.72;;
64094;SDS011;50353;51.420;5.682;2023-08-30T06:50:17;10.48;;;7.70;;
64094;SDS011;50353;51.420;5.682;2023-08-30T06:52:43;13.68;;;8.48;;
64094;SDS011;50353;51.420;5.682;2023-08-30T06:55:08;11.98;;;8.20;;
64094;SDS011;50353;51.420;5.682;2023-08-30T06:57:34;16.35;;;8.80;;
64094;SDS011;50353;51.420;5.682;2023-08-30T06:59:59;14.02;;;8.40;;
64094;SDS011;50353;51.420;5.682;2023-08-30T07:02:32;11.10;;;7.43;;
64094;SDS011;50353;51.420;5.682;2023-08-30T07:04:58;11.05;;;7.30;;
64094;SDS011;50353;51.420;5.682;2023-08-30T07:07:23;13.20;;;8.20;;
64094;SDS011;50353;51.420;5.682;2023-08-30T07:09:48;11.70;;;6.50;;
64094;SDS011;50353;51.420;5.682;2023-08-30T07:12:13;9.37;;;5.93;;
64094;SDS011;50353;51.420;5.682;2023-08-30T07:14:39;8.43;;;4.93;;
64094;SDS011;50353;51.420;5.682;2023-08-30T07:17:04;10.40;;;6.05;;
64094;SDS011;50353;51.420;5.682;2023-08-30T07:19:29;7.32;;;5.55;;
64094;SDS011;50353;51.420;5.682;2023-08-30T07:21:55;7.38;;;4.63;;
64094;SDS011;50353;51.420;5.682;2023-08-30T07:24:20;8.83;;;5.27;;
64094;SDS011;50353;51.420;5.682;2023-08-30T07:26:47;8.95;;;5.20;;
64094;SDS011;50353;51.420;5.682;2023-08-30T07:29:12;8.13;;;5.87;;
64094;SDS011;50353;51.420;5.682;2023-08-30T07:31:38;8.80;;;5.18;;
64094;SDS011;50353;51.420;5.682;2023-08-30T07:34:03;8.83;;;5.43;;
64094;SDS011;50353;51.420;5.682;2023-08-30T07:36:29;7.57;;;5.25;;
64094;SDS011;50353;51.420;5.682;2023-08-30T07:38:55;8.48;;;5.35;;
64094;SDS011;50353;51.420;5.682;2023-08-30T07:41:20;8.60;;;5.28;;
64094;SDS011;50353;51.420;5.682;2023-08-30T07:43:45;7.45;;;4.10;;
64094;SDS011;50353;51.420;5.682;2023-08-30T07:46:10;7.53;;;4.37;;
64094;SDS011;50353;51.420;5.682;2023-08-30T07:48:36;7.15;;;4.03;;
64094;SDS011;50353;51.420;5.682;2023-08-30T07:51:01;5.88;;;3.95;;
64094;SDS011;50353;51.420;5.682;2023-08-30T07:53:27;6.70;;;3.97;;
64094;SDS011;50353;51.420;5.682;2023-08-30T07:55:52;7.60;;;2.90;;
64094;SDS011;50353;51.420;5.682;2023-08-30T07:58:17;6.90;;;3.50;;
64094;SDS011;50353;51.420;5.682;2023-08-30T08:00:42;6.32;;;2.60;;
64094;SDS011;50353;51.420;5.682;2023-08-30T08:03:08;6.65;;;2.60;;
64094;SDS011;50353;51.420;5.682;2023-08-30T08:05:35;4.22;;;2.30;;
64094;SDS011;50353;51.420;5.682;2023-08-30T08:08:00;3.85;;;2.08;;
64094;SDS011;50353;51.420;5.682;2023-08-30T08:10:31;5.13;;;2.45;;
64094;SDS011;50353;51.420;5.682;2023-08-30T08:12:59;3.75;;;1.65;;
64094;SDS011;50353;51.420;5.682;2023-08-30T08:15:25;5.28;;;2.83;;
64094;SDS011;50353;51.420;5.682;2023-08-30T08:17:51;4.72;;;2.25;;
64094;SDS011;50353;51.420;5.682;2023-08-30T08:20:16;3.10;;;1.85;;
64094;SDS011;50353;51.420;5.682;2023-08-30T08:22:41;5.60;;;2.17;;
64094;SDS011;50353;51.420;5.682;2023-08-30T08:25:07;4.27;;;1.83;;
64094;SDS011;50353;51.420;5.682;2023-08-30T08:27:34;3.38;;;1.90;;
64094;SDS011;50353;51.420;5.682;2023-08-30T08:30:00;4.28;;;2.08;;
64094;SDS011;50353;51.420;5.682;2023-08-30T08:32:26;5.30;;;2.25;;
64094;SDS011;50353;51.420;5.682;2023-08-30T08:34:51;3.97;;;2.07;;
64094;SDS011;50353;51.420;5.682;2023-08-30T08:37:16;3.95;;;2.10;;
64094;SDS011;50353;51.420;5.682;2023-08-30T08:39:42;5.82;;;2.70;;
64094;SDS011;50353;51.420;5.682;2023-08-30T08:42:08;2.90;;;1.55;;
64094;SDS011;50353;51.420;5.682;2023-08-30T08:44:33;4.03;;;1.98;;
64094;SDS011;50353;51.420;5.682;2023-08-30T08:47:01;2.13;;;1.70;;
64094;SDS011;50353;51.420;5.682;2023-08-30T08:49:27;5.60;;;2.40;;
64094;SDS011;50353;51.420;5.682;2023-08-30T08:51:55;6.32;;;3.20;;
64094;SDS011;50353;51.420;5.682;2023-08-30T08:54:21;2.53;;;2.05;;
64094;SDS011;50353;51.420;5.682;2023-08-30T08:56:46;3.88;;;1.88;;
64094;SDS011;50353;51.420;5.682;2023-08-30T08:59:13;3.05;;;2.35;;
64094;SDS011;50353;51.420;5.682;2023-08-30T09:01:39;5.03;;;1.80;;
64094;SDS011;50353;51.420;5.682;2023-08-30T09:04:05;3.75;;;2.17;;
64094;SDS011;50353;51.420;5.682;2023-08-30T09:08:57;4.07;;;2.20;;
64094;SDS011;50353;51.420;5.682;2023-08-30T09:11:22;4.20;;;2.40;;
64094;SDS011;50353;51.420;5.682;2023-08-30T09:13:48;3.45;;;2.38;;
64094;SDS011;50353;51.420;5.682;2023-08-30T09:16:13;4.07;;;2.17;;
64094;SDS011;50353;51.420;5.682;2023-08-30T09:18:40;3.55;;;1.85;;
64094;SDS011;50353;51.420;5.682;2023-08-30T09:21:06;3.50;;;2.13;;
64094;SDS011;50353;51.420;5.682;2023-08-30T09:23:32;3.00;;;1.75;;
64094;SDS011;50353;51.420;5.682;2023-08-30T09:25:58;2.90;;;1.48;;
64094;SDS011;50353;51.420;5.682;2023-08-30T09:28:24;2.95;;;1.92;;
64094;SDS011;50353;51.420;5.682;2023-08-30T09:30:50;5.38;;;1.83;;
64094;SDS011;50353;51.420;5.682;2023-08-30T09:33:19;3.97;;;1.98;;
64094;SDS011;50353;51.420;5.682;2023-08-30T09:35:48;2.92;;;1.70;;
64094;SDS011;50353;51.420;5.682;2023-08-30T09:38:17;3.58;;;1.85;;
64094;SDS011;50353;51.420;5.682;2023-08-30T09:40:45;2.17;;;1.33;;
64094;SDS011;50353;51.420;5.682;2023-08-30T09:43:11;2.28;;;1.48;;
64094;SDS011;50353;51.420;5.682;2023-08-30T09:45:37;2.90;;;1.73;;
64094;SDS011;50353;51.420;5.682;2023-08-30T09:48:03;3.58;;;1.88;;
64094;SDS011;50353;51.420;5.682;2023-08-30T09:50:29;2.60;;;1.42;;
64094;SDS011;50353;51.420;5.682;2023-08-30T09:53:00;2.50;;;1.33;;
64094;SDS011;50353;51.420;5.682;2023-08-30T09:55:31;2.50;;;1.58;;
64094;SDS011;50353;51.420;5.682;2023-08-30T09:57:57;8.18;;;2.58;;
64094;SDS011;50353;51.420;5.682;2023-08-30T10:00:23;4.20;;;1.83;;
64094;SDS011;50353;51.420;5.682;2023-08-30T10:02:48;2.92;;;1.70;;
64094;SDS011;50353;51.420;5.682;2023-08-30T10:05:14;3.15;;;1.52;;
64094;SDS011;50353;51.420;5.682;2023-08-30T10:07:40;2.92;;;1.60;;
64094;SDS011;50353;51.420;5.682;2023-08-30T10:10:06;2.72;;;1.55;;
64094;SDS011;50353;51.420;5.682;2023-08-30T10:12:32;3.10;;;1.52;;
64094;SDS011;50353;51.420;5.682;2023-08-30T10:14:58;2.83;;;1.35;;
64094;SDS011;50353;51.420;5.682;2023-08-30T10:17:23;3.22;;;1.83;;
64094;SDS011;50353;51.420;5.682;2023-08-30T10:19:53;3.60;;;1.95;;
64094;SDS011;50353;51.420;5.682;2023-08-30T10:22:20;3.10;;;1.67;;
64094;SDS011;50353;51.420;5.682;2023-08-30T10:24:48;3.25;;;1.65;;
64094;SDS011;50353;51.420;5.682;2023-08-30T10:27:18;5.57;;;2.40;;
64094;SDS011;50353;51.420;5.682;2023-08-30T10:32:12;3.75;;;1.65;;
64094;SDS011;50353;51.420;5.682;2023-08-30T10:34:38;2.97;;;1.88;;
64094;SDS011;50353;51.420;5.682;2023-08-30T10:37:06;4.03;;;2.38;;
64094;SDS011;50353;51.420;5.682;2023-08-30T10:39:35;3.00;;;2.03;;
64094;SDS011;50353;51.420;5.682;2023-08-30T10:42:08;2.67;;;2.00;;
64094;SDS011;50353;51.420;5.682;2023-08-30T10:44:34;2.15;;;1.58;;
64094;SDS011;50353;51.420;5.682;2023-08-30T10:47:01;3.47;;;2.20;;
64094;SDS011;50353;51.420;5.682;2023-08-30T10:49:29;2.88;;;2.03;;
64094;SDS011;50353;51.420;5.682;2023-08-30T10:51:54;3.60;;;2.47;;
64094;SDS011;50353;51.420;5.682;2023-08-30T10:54:22;2.55;;;2.03;;
64094;SDS011;50353;51.420;5.682;2023-08-30T10:56:54;3.63;;;2.60;;
64094;SDS011;50353;51.420;5.682;2023-08-30T10:59:25;3.05;;;2.45;;
64094;SDS011;50353;51.420;5.682;2023-08-30T11:01:51;3.47;;;2.10;;
64094;SDS011;50353;51.420;5.682;2023-08-30T11:04:18;6.32;;;2.95;;
64094;SDS011;50353;51.420;5.682;2023-08-30T11:06:44;4.40;;;2.72;;
64094;SDS011;50353;51.420;5.682;2023-08-30T11:09:16;4.60;;;3.13;;
64094;SDS011;50353;51.420;5.682;2023-08-30T11:11:42;4.53;;;2.42;;
64094;SDS011;50353;51.420;5.682;2023-08-30T11:14:09;2.90;;;1.85;;
64094;SDS011;50353;51.420;5.682;2023-08-30T11:16:35;5.03;;;2.80;;
64094;SDS011;50353;51.420;5.682;2023-08-30T11:19:01;4.13;;;3.03;;
64094;SDS011;50353;51.420;5.682;2023-08-30T11:21:30;3.50;;;2.75;;
64094;SDS011;50353;51.420;5.682;2023-08-30T11:23:57;3.92;;;2.72;;
64094;SDS011;50353;51.420;5.682;2023-08-30T11:26:22;5.45;;;2.40;;
64094;SDS011;50353;51.420;5.682;2023-08-30T11:28:47;3.72;;;2.30;;
64094;SDS011;50353;51.420;5.682;2023-08-30T11:31:17;3.88;;;2.53;;
64094;SDS011;50353;51.420;5.682;2023-08-30T11:33:50;5.80;;;2.95;;
64094;SDS011;50353;51.420;5.682;2023-08-30T11:36:23;2.85;;;2.08;;
64094;SDS011;50353;51.420;5.682;2023-08-30T11:38:49;3.28;;;2.45;;
64094;SDS011;50353;51.420;5.682;2023-08-30T11:41:15;3.72;;;2.50;;
64094;SDS011;50353;51.420;5.682;2023-08-30T11:43:41;4.57;;;2.80;;
64094;SDS011;50353;51.420;5.682;2023-08-30T11:46:07;3.17;;;2.58;;
64094;SDS011;50353;51.420;5.682;2023-08-30T11:48:33;4.07;;;3.08;;
64094;SDS011;50353;51.420;5.682;2023-08-30T11:50:59;4.07;;;2.50;;
64094;SDS011;50353;51.420;5.682;2023-08-30T11:53:25;4.70;;;3.40;;
64094;SDS011;50353;51.420;5.682;2023-08-30T11:55:52;4.38;;;3.40;;
64094;SDS011;50353;51.420;5.682;2023-08-30T11:58:18;3.80;;;2.50;;
64094;SDS011;50353;51.420;5.682;2023-08-30T12:00:43;3.90;;;3.03;;
64094;SDS011;50353;51.420;5.682;2023-08-30T12:03:12;4.18;;;2.83;;
64094;SDS011;50353;51.420;5.682;2023-08-30T12:05:43;3.47;;;2.35;;
64094;SDS011;50353;51.420;5.682;2023-08-30T12:08:33;3.97;;;2.10;;
64094;SDS011;50353;51.420;5.682;2023-08-30T12:10:58;5.45;;;2.63;;
64094;SDS011;50353;51.420;5.682;2023-08-30T12:15:49;6.13;;;3.10;;
64094;SDS011;50353;51.420;5.682;2023-08-30T12:18:15;3.63;;;2.83;;
64094;SDS011;50353;51.420;5.682;2023-08-30T12:23:29;4.13;;;2.60;;
64094;SDS011;50353;51.420;5.682;2023-08-30T12:25:59;5.10;;;2.58;;
64094;SDS011;50353;51.420;5.682;2023-08-30T12:28:39;4.35;;;2.38;;
64094;SDS011;50353;51.420;5.682;2023-08-30T12:31:05;5.63;;;2.45;;
64094;SDS011;50353;51.420;5.682;2023-08-30T12:33:32;4.10;;;2.28;;
64094;SDS011;50353;51.420;5.682;2023-08-30T12:35:58;5.20;;;3.00;;
64094;SDS011;50353;51.420;5.682;2023-08-30T12:38:23;3.40;;;2.53;;
64094;SDS011;50353;51.420;5.682;2023-08-30T12:40:50;3.20;;;2.50;;
64094;SDS011;50353;51.420;5.682;2023-08-30T12:43:16;3.38;;;2.53;;
64094;SDS011;50353;51.420;5.682;2023-08-30T12:45:43;5.13;;;2.05;;
64094;SDS011;50353;51.420;5.682;2023-08-30T12:48:12;4.85;;;3.03;;
64094;SDS011;50353;51.420;5.682;2023-08-30T12:50:40;4.60;;;2.60;;
64094;SDS011;50353;51.420;5.682;2023-08-30T12:53:06;4.43;;;2.55;;
64094;SDS011;50353;51.420;5.682;2023-08-30T12:55:32;4.22;;;2.60;;
64094;SDS011;50353;51.420;5.682;2023-08-30T12:58:01;3.80;;;1.90;;
64094;SDS011;50353;51.420;5.682;2023-08-30T13:00:27;3.65;;;1.20;;
64094;SDS011;50353;51.420;5.682;2023-08-30T13:02:53;2.90;;;1.40;;
64094;SDS011;50353;51.420;5.682;2023-08-30T13:05:18;4.30;;;1.23;;
64094;SDS011;50353;51.420;5.682;2023-08-30T13:07:44;1.90;;;0.90;;
64094;SDS011;50353;51.420;5.682;2023-08-30T13:10:09;4.13;;;1.00;;
64094;SDS011;50353;51.420;5.682;2023-08-30T13:12:35;2.72;;;0.93;;
64094;SDS011;50353;51.420;5.682;2023-08-30T13:15:01;3.03;;;0.93;;
64094;SDS011;50353;51.420;5.682;2023-08-30T13:17:26;2.30;;;1.25;;
64094;SDS011;50353;51.420;5.682;2023-08-30T13:19:52;6.22;;;1.00;;
64094;SDS011;50353;51.420;5.682;2023-08-30T13:22:17;3.37;;;1.30;;
64094;SDS011;50353;51.420;5.682;2023-08-30T13:24:43;4.90;;;1.00;;
64094;SDS011;50353;51.420;5.682;2023-08-30T13:27:08;5.22;;;1.23;;
64094;SDS011;50353;51.420;5.682;2023-08-30T13:29:34;4.10;;;0.82;;
64094;SDS011;50353;51.420;5.682;2023-08-30T13:32:00;2.58;;;0.68;;
64094;SDS011;50353;51.420;5.682;2023-08-30T13:34:25;3.27;;;0.93;;
64094;SDS011;50353;51.420;5.682;2023-08-30T13:36:50;2.63;;;0.80;;
64094;SDS011;50353;51.420;5.682;2023-08-30T13:39:16;6.03;;;1.08;;
64094;SDS011;50353;51.420;5.682;2023-08-30T13:41:43;5.63;;;1.10;;
64094;SDS011;50353;51.420;5.682;2023-08-30T13:44:08;3.08;;;0.93;;
64094;SDS011;50353;51.420;5.682;2023-08-30T13:46:33;3.17;;;1.10;;
64094;SDS011;50353;51.420;5.682;2023-08-30T13:48:58;3.73;;;0.90;;
64094;SDS011;50353;51.420;5.682;2023-08-30T13:51:25;3.45;;;1.00;;
64094;SDS011;50353;51.420;5.682;2023-08-30T13:53:51;3.53;;;0.90;;
64094;SDS011;50353;51.420;5.682;2023-08-30T13:56:18;2.13;;;0.82;;
64094;SDS011;50353;51.420;5.682;2023-08-30T13:58:44;3.50;;;0.90;;
64094;SDS011;50353;51.420;5.682;2023-08-30T14:01:09;2.95;;;0.63;;
64094;SDS011;50353;51.420;5.682;2023-08-30T14:03:34;4.90;;;1.00;;
64094;SDS011;50353;51.420;5.682;2023-08-30T14:05:59;2.23;;;0.60;;
64094;SDS011;50353;51.420;5.682;2023-08-30T14:08:25;1.80;;;0.70;;
64094;SDS011;50353;51.420;5.682;2023-08-30T14:10:50;3.50;;;1.07;;
64094;SDS011;50353;51.420;5.682;2023-08-30T14:13:15;4.97;;;0.97;;
64094;SDS011;50353;51.420;5.682;2023-08-30T14:15:41;3.35;;;0.60;;
64094;SDS011;50353;51.420;5.682;2023-08-30T14:18:07;2.78;;;0.80;;
64094;SDS011;50353;51.420;5.682;2023-08-30T14:20:33;2.92;;;0.77;;
64094;SDS011;50353;51.420;5.682;2023-08-30T14:22:58;3.28;;;0.73;;
64094;SDS011;50353;51.420;5.682;2023-08-30T14:25:23;3.67;;;0.80;;
64094;SDS011;50353;51.420;5.682;2023-08-30T14:27:49;5.43;;;0.73;;
64094;SDS011;50353;51.420;5.682;2023-08-30T14:30:14;3.75;;;0.73;;
64094;SDS011;50353;51.420;5.682;2023-08-30T14:32:40;2.80;;;0.55;;
64094;SDS011;50353;51.420;5.682;2023-08-30T14:35:05;2.85;;;0.47;;
64094;SDS011;50353;51.420;5.682;2023-08-30T14:37:31;3.17;;;0.80;;
64094;SDS011;50353;51.420;5.682;2023-08-30T14:39:56;3.42;;;0.65;;
64094;SDS011;50353;51.420;5.682;2023-08-30T14:42:22;3.17;;;0.63;;
64094;SDS011;50353;51.420;5.682;2023-08-30T14:44:50;4.33;;;0.67;;
64094;SDS011;50353;51.420;5.682;2023-08-30T14:47:16;3.13;;;0.60;;
64094;SDS011;50353;51.420;5.682;2023-08-30T14:49:42;2.95;;;0.50;;
64094;SDS011;50353;51.420;5.682;2023-08-30T14:52:07;2.73;;;0.50;;
64094;SDS011;50353;51.420;5.682;2023-08-30T14:54:32;4.13;;;0.57;;
64094;SDS011;50353;51.420;5.682;2023-08-30T14:56:57;2.15;;;0.50;;
64094;SDS011;50353;51.420;5.682;2023-08-30T14:59:23;2.42;;;0.40;;